Aérodrome :
LOGIN :

S'inscrire | Disclaimer

   EN    FR    IT 

 










Légende :    VFR   VFR Marginal   IFR   IFR Intensif   IFR Très Intensif
Visi : 
Plafond : 
>= 8 km
>= 3000ft
5 à 8 km
1000 à 3000 ft
1500m à 5 km
500 à 1000 ft
800 à 1500m
200 à 500 ft
< 800m
< 200 ft
Symboles :   Orages  Brouillard  Fortes neiges  Fortes précipitations  Vent > 20 kt
SIGMETs :   Divers  Orages  Givrage  Turbulence  Onde Orograph.  Cendres Volcan.






- Altitude de l'aérodrome : 1674 ft
- Code IATA : BRN


LSZB - Bern Belp

DERNIER METAR :
  • 071820Z AUTO 27003KT 220V310 9999 NCD 07/03 Q1020

METARs EXPIRÉS :
  • 071750Z AUTO 31007KT 9999 BKN050 08/05 Q1020
  • 071720Z AUTO 32004KT 290V360 9999 SCT044 BKN049 09/05 Q1020
  • 071650Z 30005KT 270V340 9999 BKN041 09/04 Q1020 NOSIG
  • 071620Z 32003KT 220V010 9999 FEW037 BKN050 09/05 Q1020 NOSIG
  • 071550Z VRB02KT 9999 FEW042 BKN055 11/05 Q1019 NOSIG

TAF TAF LSZB
Valide du 07 à 15h jusqu'au 08 à 00h UTC


071425Z 0715/0724 31005KT 9999 BKN030
BECMG 0721/0724 CAVOK
ATIS : +41 22 417 40 76



MET'MAP, la Météo Aéronautique d'un coup d'oeil ! - Copyright ORBIFLY Décembre 2007 - Disclaimer

ORBIFLY MET'MAP TEAM :

Programmation & Développement : Alexandra Zaïnal
Sur une idée originale de : Baudouin d'Aumeries
Assistance à la programmation : Marc-Olivier Méhu
Soutien technique & logistique : Manuel Goepfert

Contact : metmap@orbifly.com




SOURCES & CREDITS :

   NOAA